.
WxDataArchive / Data Records for 2008-03-03
2008-03-02 March 2008 2008-03-04

Data Records for Monday, 03 March 2008

Time	Temp	Chill	HIndex	Humid	Dewpt	 Wind 	HiWind	WindDir	Rain 	Barom 
-----	----	-----	------	-----	-----	------	------	-------	-----	----- 
00:00	50.7	50.7	50.7	76	43.4	3	9	90	0.00	29.823 
00:05	51.1	51.1	51.1	75	43.5	2	10	90	0.00	29.823 
00:10	51.3	51.3	51.3	75	43.6	2	5	90	0.00	29.815 
00:15	51.3	51.3	51.3	75	43.6	2	6	135	0.00	29.815 
00:20	51.1	51.1	51.1	75	43.5	2	10	90	0.00	29.813 
00:25	51.1	51.1	51.1	75	43.5	2	5	112	0.00	29.813 
00:30	50.8	50.8	50.8	75	43.2	1	6	0	0.00	29.813 
00:35	50.7	50.7	50.7	76	43.4	1	4	90	0.00	29.812 
00:40	50.8	50.8	50.8	73	42.5	3	7	90	0.00	29.812 
00:45	51.1	51.1	51.1	75	43.5	2	7	90	0.00	29.812 
00:50	51.1	51.1	51.1	75	43.5	3	8	90	0.00	29.810 
00:55	51.3	51.3	51.3	75	43.6	4	13	90	0.00	29.806 
01:00	51.1	51.1	51.1	75	43.5	2	7	90	0.00	29.802 
01:05	51.3	51.3	51.3	75	43.6	3	7	112	0.00	29.800 
01:10	51.3	51.3	51.3	75	43.6	3	7	112	0.00	29.798 
01:15	51.1	51.1	51.1	75	43.5	2	7	90	0.00	29.795 
01:20	51.1	51.1	51.1	75	43.5	2	6	68	0.00	29.793 
01:25	51.3	51.3	51.3	75	43.6	2	7	90	0.00	29.793 
01:30	51.4	51.4	51.4	75	43.7	2	7	68	0.00	29.790 
01:35	51.4	51.4	51.4	74	43.4	2	7	68	0.00	29.790 
01:40	51.4	51.4	51.4	74	43.4	2	6	90	0.00	29.785 
01:45	51.6	51.6	51.6	74	43.6	2	7	68	0.00	29.781 
01:50	51.6	51.6	51.6	74	43.6	2	6	90	0.00	29.784 
01:55	51.4	51.4	51.4	75	43.7	1	4	270	0.00	29.782 
02:00	51.6	51.6	51.6	75	43.9	1	7	68	0.00	29.782 
02:05	51.7	51.7	51.7	74	43.7	2	5	112	0.00	29.781 
02:10	51.6	51.6	51.6	74	43.6	1	4	68	0.00	29.780 
02:15	51.6	51.6	51.6	74	43.6	2	5	90	0.00	29.780 
02:20	51.6	51.6	51.6	74	43.6	2	4	68	0.00	29.779 
02:25	51.7	51.7	51.7	75	44.0	2	4	90	0.00	29.777 
02:30	51.6	51.6	51.6	74	43.6	1	3	68	0.00	29.775 
02:35	51.6	51.6	51.6	75	43.9	2	5	270	0.00	29.774 
02:40	51.6	51.6	51.6	75	43.9	1	6	270	0.00	29.768 
02:45	51.6	51.6	51.6	75	43.9	2	6	0	0.00	29.765 
02:50	51.6	51.6	51.6	75	43.9	2	7	270	0.00	29.764 
02:55	51.4	51.4	51.4	75	43.7	1	4	112	0.00	29.763 
03:00	51.6	51.6	51.6	75	43.9	2	7	248	0.00	29.763 
03:05	51.7	51.7	51.7	74	43.7	2	9	90	0.00	29.761 
03:10	51.6	51.6	51.6	74	43.6	1	4	315	0.00	29.759 
03:15	51.4	51.4	51.4	74	43.4	1	9	45	0.00	29.754 
03:20	51.1	51.1	51.1	75	43.5	1	4	68	0.00	29.753 
03:25	51.0	51.0	51.0	76	43.7	1	3	90	0.00	29.748 
03:30	50.7	50.7	50.7	76	43.4	1	4	45	0.00	29.748 
03:35	50.4	50.4	50.4	77	43.5	1	5	90	0.00	29.750 
03:40	50.2	50.2	50.2	77	43.3	1	6	45	0.00	29.746 
03:45	50.1	50.1	50.1	77	43.2	1	3	68	0.00	29.745 
03:50	49.9	49.9	49.9	77	43.0	1	4	248	0.00	29.743 
03:55	49.9	49.9	49.9	77	43.0	1	4	112	0.00	29.739 
04:00	49.9	49.9	49.9	77	43.0	1	9	112	0.00	29.736 
04:05	49.9	49.9	49.9	77	43.0	1	3	90	0.00	29.735 
04:10	49.8	49.8	49.8	77	42.9	1	4	0	0.00	29.735 
04:15	49.6	49.6	49.6	77	42.7	1	2	112	0.00	29.735 
04:20	49.5	49.5	49.5	78	42.9	1	4	22	0.00	29.734 
04:25	49.4	49.4	49.4	78	42.8	1	2	0	0.00	29.735 
04:30	49.2	49.2	49.2	78	42.6	1	3	135	0.00	29.735 
04:35	49.1	49.1	49.1	78	42.5	0	2	22	0.00	29.735 
04:40	49.1	49.1	49.1	79	42.9	1	3	22	0.00	29.736 
04:45	49.1	49.1	49.1	79	42.9	0	2	248	0.00	29.736 
04:50	48.9	48.9	48.9	79	42.7	1	4	90	0.00	29.735 
04:55	49.1	49.1	49.1	79	42.9	1	3	90	0.00	29.733 
05:00	49.2	49.2	49.2	79	43.0	1	4	90	0.00	29.731 
05:05	49.2	49.2	49.2	78	42.6	1	2	90	0.00	29.730 
05:10	49.4	49.4	49.4	78	42.8	1	5	112	0.00	29.727 
05:15	49.5	49.5	49.5	77	42.6	1	4	135	0.00	29.724 
05:20	49.8	49.8	49.8	77	42.9	2	5	112	0.00	29.723 
05:25	50.1	50.1	50.1	76	42.8	2	8	68	0.00	29.724 
05:30	50.1	50.1	50.1	76	42.8	1	3	45	0.00	29.727 
05:35	50.2	50.2	50.2	76	42.9	2	5	112	0.00	29.731 
05:40	50.4	50.4	50.4	76	43.1	1	4	90	0.00	29.731 
05:45	50.4	50.4	50.4	76	43.1	2	5	112	0.00	29.732 
05:50	50.5	50.5	50.5	75	42.9	2	7	22	0.00	29.730 
05:55	50.7	50.7	50.7	75	43.1	2	5	90	0.00	29.730 
06:00	50.7	50.7	50.7	75	43.1	2	7	90	0.00	29.730 
06:05	50.5	50.5	50.5	75	42.9	1	4	112	0.00	29.731 
06:10	50.7	50.7	50.7	74	42.7	2	7	90	0.00	29.727 
06:15	50.8	50.8	50.8	74	42.8	3	9	90	0.00	29.725 
06:20	50.8	50.8	50.8	74	42.8	2	6	112	0.00	29.726 
06:25	50.8	50.8	50.8	73	42.5	2	6	112	0.00	29.723 
06:30	50.8	50.8	50.8	74	42.8	2	5	270	0.00	29.721 
06:35	50.7	50.7	50.7	73	42.4	1	3	90	0.00	29.720 
06:40	50.8	50.8	50.8	73	42.5	3	7	112	0.00	29.720 
06:45	50.8	50.8	50.8	73	42.5	2	7	112	0.00	29.719 
06:50	51.0	51.0	51.0	73	42.7	2	10	112	0.00	29.720 
06:55	51.0	51.0	51.0	72	42.3	2	6	112	0.00	29.720 
07:00	51.0	51.0	51.0	72	42.3	3	7	90	0.00	29.718 
07:05	51.0	51.0	51.0	72	42.3	3	8	90	0.00	29.715 
07:10	51.1	51.1	51.1	71	42.0	3	6	135	0.00	29.714 
07:15	51.3	51.3	51.3	70	41.9	3	9	90	0.00	29.713 
07:20	51.4	51.4	51.4	70	41.9	3	9	90	0.00	29.710 
07:25	51.4	51.4	51.4	70	41.9	3	6	112	0.00	29.713 
07:30	51.4	51.4	51.4	69	41.6	3	7	90	0.00	29.713 
07:35	51.6	51.6	51.6	69	41.8	3	7	90	0.00	29.711 
07:40	51.9	51.9	51.9	68	41.7	3	8	90	0.00	29.714 
07:45	52.2	52.2	52.2	68	42.0	3	10	45	0.00	29.715 
07:50	52.3	52.3	52.3	67	41.7	3	10	90	0.00	29.715 
07:55	52.5	52.5	52.5	67	41.9	2	9	68	0.00	29.714 
08:00	52.8	52.8	52.8	66	41.8	2	6	90	0.00	29.717 
08:05	53.1	53.1	53.1	66	42.0	3	8	112	0.00	29.712 
08:10	53.3	53.3	53.3	65	41.8	3	10	248	0.00	29.710 
08:15	53.5	53.5	53.5	65	42.0	2	7	68	0.00	29.713 
08:20	53.5	53.5	53.5	65	42.0	2	9	292	0.00	29.720 
08:25	53.5	53.5	53.5	65	42.0	2	6	248	0.00	29.726 
08:30	53.5	53.5	53.5	65	42.0	2	9	45	0.00	29.726 
08:35	53.5	53.5	53.5	65	42.0	3	7	270	0.00	29.729 
08:40	53.8	53.8	53.8	64	41.9	3	10	270	0.00	29.730 
08:45	54.1	54.1	54.1	63	41.8	3	11	270	0.00	29.735 
08:50	54.1	54.1	54.1	63	41.8	3	10	248	0.00	29.731 
08:55	54.1	54.1	54.1	63	41.8	3	10	248	0.00	29.734 
09:00	54.1	54.1	54.1	63	41.8	3	12	248	0.00	29.732 
09:05	54.1	54.1	54.1	63	41.8	4	8	270	0.00	29.735 
09:10	54.1	54.1	54.1	63	41.8	4	12	248	0.00	29.739 
09:15	54.1	54.1	54.1	63	41.8	4	12	248	0.00	29.740 
09:20	54.1	54.1	54.1	63	41.8	3	10	270	0.00	29.731 
09:25	53.9	53.9	53.9	64	42.0	3	12	248	0.00	29.730 
09:30	53.9	53.9	53.9	64	42.0	3	9	270	0.00	29.727 
09:35	54.1	54.1	54.1	63	41.8	4	17	270	0.00	29.720 
09:40	54.5	54.5	54.5	63	42.2	3	11	270	0.00	29.719 
09:45	54.7	54.7	54.7	63	42.4	3	6	112	0.00	29.720 
09:50	55.1	55.1	55.1	62	42.3	4	11	248	0.00	29.718 
09:55	55.4	55.4	55.4	62	42.6	4	10	248	0.00	29.720 
10:00	55.6	55.6	55.6	61	42.4	5	10	248	0.00	29.718 
10:05	55.6	55.6	55.6	62	42.8	4	10	270	0.00	29.713 
10:10	56.0	56.0	56.0	62	43.2	4	12	248	0.00	29.710 
10:15	56.7	56.7	56.7	60	43.0	4	10	270	0.00	29.708 
10:20	56.9	56.9	56.9	60	43.2	4	12	248	0.00	29.707 
10:25	56.6	56.6	56.6	60	42.9	4	9	248	0.00	29.708 
10:30	56.3	56.3	56.3	61	43.0	4	9	270	0.00	29.708 
10:35	56.2	56.2	56.2	61	42.9	4	11	270	0.00	29.709 
10:40	56.2	56.2	56.2	61	42.9	4	9	248	0.00	29.708 
10:45	56.0	56.0	56.0	62	43.2	3	7	225	0.00	29.706 
10:50	55.9	55.9	55.9	62	43.1	3	7	248	0.00	29.707 
10:55	55.9	55.9	55.9	62	43.1	3	11	248	0.00	29.700 
11:00	56.2	56.2	56.2	62	43.4	4	13	248	0.00	29.701 
11:05	56.2	56.2	56.2	62	43.4	4	10	270	0.00	29.698 
11:10	55.9	55.9	55.9	64	43.9	3	10	225	0.00	29.698 
11:15	55.7	55.7	55.7	65	44.1	2	5	270	0.00	29.693 
11:20	55.6	55.6	55.6	64	43.6	3	10	270	0.00	29.692 
11:25	55.6	55.6	55.6	64	43.6	2	10	248	0.00	29.694 
11:30	55.3	55.3	55.3	66	44.1	3	7	248	0.00	29.689 
11:35	55.1	55.1	55.1	68	44.7	2	8	248	0.00	29.681 
11:40	55.1	55.1	55.1	67	44.3	2	7	270	0.00	29.689 
11:45	55.3	55.3	55.3	66	44.1	2	6	248	0.00	29.691 
11:50	55.4	55.4	55.4	66	44.2	2	5	248	0.00	29.690 
11:55	55.4	55.4	55.4	65	43.8	3	7	248	0.00	29.683 
12:00	55.4	55.4	55.4	65	43.8	3	9	248	0.00	29.682 
12:05	55.6	55.6	55.6	64	43.6	4	11	248	0.00	29.687 
12:10	55.6	55.6	55.6	64	43.6	2	8	248	0.00	29.684 
12:15	55.6	55.6	55.6	64	43.6	3	11	248	0.00	29.680 
12:20	55.4	55.4	55.4	65	43.8	3	9	248	0.00	29.678 
12:25	55.3	55.3	55.3	65	43.7	3	9	248	0.00	29.679 
12:30	55.4	55.4	55.4	66	44.2	5	11	248	0.00	29.677 
12:35	55.1	55.1	55.1	67	44.3	3	11	248	0.00	29.677 
12:40	55.1	55.1	55.1	67	44.3	4	10	248	0.00	29.675 
12:45	55.0	55.0	55.0	67	44.2	3	12	248	0.00	29.676 
12:50	55.0	55.0	55.0	68	44.6	3	8	248	0.00	29.678 
12:55	54.7	54.7	54.7	70	45.1	4	12	248	0.00	29.676 
13:00	53.9	53.9	53.9	75	46.2	5	16	270	0.00	29.678 
13:05	53.2	53.2	53.2	79	46.9	3	7	248	0.01	29.679 
13:10	52.5	52.5	52.5	82	47.2	3	9	248	0.00	29.677 
13:15	52.0	52.0	52.0	84	47.3	3	7	248	0.00	29.677 
13:20	51.7	51.7	51.7	86	47.6	5	14	248	0.00	29.675 
13:25	51.6	51.6	51.6	88	48.2	4	11	248	0.01	29.676 
13:30	51.3	51.3	51.3	89	48.2	4	11	248	0.00	29.678 
13:35	51.1	51.1	51.1	90	48.3	4	11	248	0.00	29.677 
13:40	51.0	51.0	51.0	91	48.5	3	7	248	0.00	29.678 
13:45	50.8	50.8	50.8	92	48.6	4	12	248	0.01	29.676 
13:50	50.8	50.8	50.8	92	48.6	4	13	248	0.00	29.676 
13:55	50.8	50.8	50.8	93	48.8	5	15	248	0.01	29.676 
14:00	50.8	50.8	50.8	93	48.8	5	12	270	0.00	29.679 
14:05	50.8	50.8	50.8	94	49.1	6	15	248	0.01	29.682 
14:10	50.8	50.8	50.8	94	49.1	4	11	248	0.01	29.681 
14:15	51.0	51.0	51.0	94	49.3	4	11	248	0.00	29.682 
14:20	51.0	51.0	51.0	95	49.6	5	16	270	0.00	29.683 
14:25	51.0	51.0	51.0	95	49.6	5	12	248	0.01	29.686 
14:30	51.0	51.0	51.0	95	49.6	5	15	270	0.00	29.686 
14:35	51.0	51.0	51.0	95	49.6	4	9	270	0.01	29.694 
14:40	50.7	50.7	50.7	95	49.3	3	10	270	0.00	29.698 
14:45	47.0	47.0	47.0	91	44.5	3	6	270	0.01	29.714 
14:50	44.1	42.1	44.1	90	41.4	4	11	315	0.00	29.725 
14:55	42.8	42.8	42.8	91	40.4	3	9	270	0.00	29.731 
15:00	42.2	42.2	42.2	92	40.0	2	5	270	0.00	29.735 
15:05	41.5	41.5	41.5	92	39.4	3	9	315	0.00	29.743 
15:10	41.1	41.1	41.1	92	39.0	2	5	315	0.00	29.745 
15:15	40.6	40.6	40.6	92	38.5	2	7	292	0.00	29.742 
15:20	40.2	40.2	40.2	92	38.1	2	6	315	0.00	29.742 
15:25	39.6	39.6	39.6	92	37.5	2	6	338	0.00	29.747 
15:30	39.3	39.3	39.3	93	37.4	2	4	338	0.01	29.754 
15:35	39.1	39.1	39.1	93	37.2	2	6	270	0.00	29.755 
15:40	38.8	38.8	38.8	93	37.0	3	12	338	0.00	29.755 
15:45	38.6	38.6	38.6	93	36.8	2	5	270	0.00	29.755 
15:50	38.5	38.5	38.5	93	36.7	1	4	270	0.00	29.755 
15:55	38.3	38.3	38.3	93	36.5	1	3	292	0.00	29.759 
16:00	38.2	38.2	38.2	93	36.4	1	4	292	0.00	29.762 
16:05	38.0	38.0	38.0	93	36.2	1	5	292	0.01	29.768 
16:10	37.8	37.8	37.8	94	36.2	1	4	270	0.00	29.770 
16:15	37.6	37.6	37.6	94	36.0	1	4	270	0.00	29.771 
16:20	37.5	37.5	37.5	94	35.9	1	3	315	0.00	29.772 
16:25	37.5	37.5	37.5	94	35.9	1	3	248	0.00	29.774 
16:30	37.3	37.3	37.3	94	35.7	0	2	248	0.01	29.778 
16:35	36.9	36.9	36.9	94	35.3	1	4	315	0.00	29.783 
16:40	36.8	36.8	36.8	94	35.2	1	2	315	0.00	29.785 
16:45	36.6	36.6	36.6	94	35.0	1	3	292	0.00	29.787 
16:50	36.5	36.5	36.5	94	34.9	2	4	315	0.01	29.782 
16:55	36.5	36.5	36.5	94	34.9	1	6	270	0.00	29.789 
17:00	36.3	36.3	36.3	94	34.7	1	4	292	0.00	29.796 
17:05	36.2	36.2	36.2	94	34.6	2	5	292	0.00	29.799 
17:10	36.0	36.0	36.0	94	34.4	2	6	292	0.00	29.798 
17:15	35.9	35.9	35.9	94	34.3	1	4	315	0.00	29.792 
17:20	35.8	35.8	35.8	94	34.2	2	6	315	0.00	29.789 
17:25	35.6	35.6	35.6	94	34.0	1	6	270	0.00	29.802 
17:30	35.5	35.5	35.5	94	33.9	2	6	315	0.01	29.802 
17:35	35.5	35.5	35.5	94	33.9	1	4	338	0.00	29.803 
17:40	35.3	35.3	35.3	94	33.7	1	5	292	0.00	29.803 
17:45	35.3	35.3	35.3	94	33.7	1	6	315	0.01	29.804 
17:50	35.2	35.2	35.2	94	33.6	1	4	292	0.00	29.804 
17:55	35.2	35.2	35.2	94	33.6	1	4	292	0.00	29.805 
18:00	35.0	35.0	35.0	94	33.5	1	3	292	0.00	29.809 
18:05	35.0	35.0	35.0	94	33.5	1	3	292	0.01	29.814 
18:10	35.0	35.0	35.0	94	33.5	0	2	315	0.00	29.818 
18:15	34.9	34.9	34.9	94	33.4	1	3	315	0.00	29.820 
18:20	34.9	34.9	34.9	93	33.1	1	4	292	0.01	29.822 
18:25	34.7	34.7	34.7	93	32.9	0	2	315	0.00	29.828 
18:30	34.7	34.7	34.7	93	32.9	1	4	315	0.00	29.827 
18:35	34.6	34.6	34.6	93	32.8	1	4	292	0.00	29.828 
18:40	34.6	34.6	34.6	93	32.8	0	1	292	0.00	29.829 
18:45	34.6	34.6	34.6	94	33.1	0	2	292	0.01	29.833 
18:50	34.4	34.4	34.4	94	32.9	0	4	292	0.00	29.837 
18:55	34.4	34.4	34.4	94	32.9	1	3	292	0.00	29.837 
19:00	34.3	34.3	34.3	94	32.8	0	2	338	0.00	29.837 
19:05	34.3	34.3	34.3	94	32.8	1	3	270	0.00	29.838 
19:10	34.1	34.1	34.1	94	32.6	1	3	270	0.00	29.845 
19:15	34.1	34.1	34.1	94	32.6	0	2	315	0.01	29.850 
19:20	34.1	34.1	34.1	94	32.6	1	4	270	0.00	29.853 
19:25	34.1	34.1	34.1	94	32.6	1	3	270	0.00	29.856 
19:30	34.1	34.1	34.1	94	32.6	1	4	315	0.01	29.863 
19:35	34.1	34.1	34.1	94	32.6	1	3	315	0.00	29.867 
19:40	34.0	34.0	34.0	94	32.5	1	4	315	0.01	29.867 
19:45	33.8	33.8	33.8	94	32.3	1	4	270	0.00	29.867 
19:50	33.8	33.8	33.8	94	32.3	1	3	292	0.01	29.868 
19:55	33.7	33.7	33.7	94	32.2	1	3	315	0.00	29.872 
20:00	33.7	33.7	33.7	94	32.2	1	5	292	0.01	29.880 
20:05	33.7	33.7	33.7	94	32.2	1	3	315	0.00	29.881 
20:10	33.5	33.5	33.5	94	32.0	2	4	292	0.00	29.885 
20:15	33.5	33.5	33.5	94	32.0	2	7	270	0.00	29.894 
20:20	33.4	33.4	33.4	94	31.9	2	4	292	0.00	29.897 
20:25	33.2	33.2	33.2	94	31.7	1	2	315	0.00	29.893 
20:30	33.1	33.1	33.1	94	31.6	0	2	315	0.00	29.889 
20:35	32.9	32.9	32.9	94	31.4	1	5	315	0.00	29.887 
20:40	32.9	32.9	32.9	94	31.4	1	6	292	0.00	29.884 
20:45	32.8	32.8	32.8	94	31.3	1	3	292	0.00	29.881 
20:50	32.8	32.8	32.8	94	31.3	1	5	292	0.00	29.880 
20:55	32.7	32.7	32.7	97	31.9	1	3	338	0.00	29.876 
21:00	32.7	32.7	32.7	94	31.2	1	3	315	0.01	29.876 
21:05	32.7	32.7	32.7	94	31.2	1	4	315	0.00	29.870 
21:10	32.5	32.5	32.5	94	31.0	2	6	270	0.00	29.867 
21:15	32.5	32.5	32.5	94	31.0	1	6	338	0.01	29.868 
21:20	32.5	32.5	32.5	94	31.0	1	4	292	0.00	29.874 
21:25	32.5	32.5	32.5	94	31.0	1	6	315	0.00	29.875 
21:30	32.4	32.4	32.4	94	30.9	1	3	315	0.00	29.877 
21:35	32.4	32.4	32.4	94	30.9	1	5	315	0.01	29.880 
21:40	32.4	32.4	32.4	94	30.9	1	3	315	0.00	29.881 
21:45	32.4	32.4	32.4	94	30.9	1	3	315	0.00	29.882 
21:50	32.4	32.4	32.4	94	30.9	1	3	292	0.00	29.882 
21:55	32.4	32.4	32.4	94	30.9	0	2	315	0.00	29.884 
22:00	32.2	32.2	32.2	94	30.7	0	2	315	0.00	29.886 
22:05	32.2	32.2	32.2	94	30.7	0	2	315	0.00	29.892 
22:10	32.1	32.1	32.1	94	30.6	1	4	292	0.00	29.896 
22:15	32.1	32.1	32.1	94	30.6	1	3	292	0.00	29.895 
22:20	31.9	31.9	31.9	94	30.4	1	3	292	0.00	29.896 
22:25	31.9	31.9	31.9	94	30.4	0	1	292	0.00	29.896 
22:30	31.9	31.9	31.9	94	30.4	0	1	292	0.00	29.899 
22:35	31.9	31.9	31.9	94	30.4	0	2	292	0.00	29.905 
22:40	31.8	31.8	31.8	94	30.3	0	2	292	0.00	29.909 
22:45	31.8	31.8	31.8	94	30.3	0	3	270	0.00	29.908 
22:50	31.6	31.6	31.6	94	30.1	1	5	270	0.00	29.907 
22:55	31.6	31.6	31.6	94	30.1	1	2	338	0.00	29.907 
23:00	31.6	31.6	31.6	94	30.1	0	2	315	0.00	29.910 
23:05	31.6	31.6	31.6	94	30.1	0	1	315	0.00	29.910 
23:10	31.5	31.5	31.5	94	30.0	0	2	315	0.00	29.907 
23:15	31.5	31.5	31.5	94	30.0	1	3	270	0.00	29.910 
23:20	31.3	31.3	31.3	94	29.8	1	3	338	0.00	29.912 
23:25	31.3	31.3	31.3	94	29.8	0	3	292	0.00	29.912 
23:30	31.3	31.3	31.3	93	29.5	0	2	315	0.00	29.905 
23:35	31.2	31.2	31.2	93	29.4	0	1	315	0.00	29.905 
23:40	31.2	31.2	31.2	93	29.4	0	2	315	0.00	29.906 
23:45	31.2	31.2	31.2	93	29.4	0	3	292	0.00	29.908 
23:50	31.0	31.0	31.0	93	29.2	0	1	292	0.00	29.904 
23:55	31.0	31.0	31.0	93	29.2	0	3	292	0.00	29.907 

CoCoRaHS
IN-AL-39
A2 Web Hosting
Creative Commons License
GoDaddy
Look for:

loaded 2017-10-19 14:40:15 • last modified 2010-11-18 10:43:29
Privacy PolicyDisclaimer
• wx.awcolley.com is powered by PmWiki v.2002016 •
• all content (unless otherwise noted) © 2017 A W Colley